To NAV CANADA Home Page Login to a new session Search on AWWS site Feedback and Comments Disclaimer Vers la page française équivalente Tips FAQ What's new on the site To the Forecasts and Observations / NOTAM section To "File a Flight Plan" website Publications and other links Update of the User's profile FIC Telephone Numbers My Weather Data Folder Route Weather Data Regional Weather Data Local Weather Data To the Forecasts and Observations / NOTAM section
Request Generated 08/28/2016 at 14:01:08 UTC . Weather information available at that time is displayed.

METAR/TAF

ISLAND LAKE/MB    

METAR CYIV 281300Z 19004KT 130V210 15SM FEW250 16/14 A3000 RMK CI1 CI
TR SLP166 DENSITY ALT 900FT=
METAR CYIV 281200Z 14004KT 130V190 15SM FEW250 14/14 A2999 RMK CI1 CI
TR SLP163=
METAR CYIV 281100Z 15003KT 130V190 15SM FEW250 14/13 A2998 RMK CI2
SLP160=

TAF CYIV 281238Z 2813/2901 VRB03KT P6SM FEW040 TEMPO 2813/2815 2SM BR
PROB40 2813/2815 1SM BR
FM281500 15005KT P6SM BKN008
FM281700 17008KT P6SM SCT220
RMK NXT FCST BY 281900Z=
Your time UTC time
Weather data provided by Environment Canada and NAV CANADA